Terminal Aerodrome Forecast
Issued by NWS Twin Cities, MN

Home | Current Version | Previous Version | Graphics & Text | Print | Product List | Glossary On
Versions: 1 2 3 4 5 6 7 8 9 10 11 12 13 14 15 16 17 18 19 20 21 22 23 24 25 26 27
648
FTUS43 KMPX 211120
TAFMSP
TAF
KMSP 211120Z 2112/2218 17011G18KT 6SM -SHRA VCTS OVC045CB
      TEMPO 2112/2115 3SM -TSRA
     FM211600 16015G24KT P6SM OVC025
     FM220000 21006KT 6SM -RA BR OVC025
     FM220400 26005KT 6SM BR OVC040
     FM220800 27004KT P6SM SCT120=

USA.gov is the U.S. government's official web portal to all federal, state and local government web resources and services.